Time;durP1;ratioP1;P1;durP2;ratioP2;P2;SDS_P1;SDS_P2;PMS_P1;PMS_P2;Temp;Humidity;BMP_temperature;BMP_pressure;BME280_temperature;BME280_humidity;BME280_pressure;Samples;Min_cycle;Max_cycle;Signal;HPM_P1;HPM_P2
2021/04/23 00:03:27;;;;;;;2.95;1.05;;;17.70;54.30;;;;;;10497296;28;20111;-55
2021/04/23 00:08:28;;;;;;;1.95;0.90;;;17.70;54.30;;;;;;10497312;28;20037;-56
2021/04/23 00:13:28;;;;;;;2.88;1.30;;;17.70;54.10;;;;;;10497042;28;20032;-56
2021/04/23 00:18:30;;;;;;;1.88;1.00;;;17.70;54.10;;;;;;10496790;28;20036;-57
2021/04/23 00:23:32;;;;;;;2.83;1.30;;;17.70;54.00;;;;;;10496782;28;20369;-56
2021/04/23 00:28:36;;;;;;;1.95;0.80;;;17.70;53.90;;;;;;10496922;28;20029;-56
2021/04/23 00:33:37;;;;;;;2.38;1.02;;;17.70;53.90;;;;;;10496936;28;20469;-56
2021/04/23 00:38:39;;;;;;;2.90;1.25;;;17.70;53.70;;;;;;10478930;28;20078;-56
2021/04/23 00:43:44;;;;;;;2.47;0.80;;;17.80;53.70;;;;;;10496193;28;20493;-57
2021/04/23 00:48:47;;;;;;;2.80;1.30;;;17.80;53.60;;;;;;10496556;28;20036;-56
2021/04/23 00:53:51;;;;;;;2.55;1.00;;;17.70;53.50;;;;;;10498566;28;20036;-56
2021/04/23 00:58:52;;;;;;;1.33;0.82;;;17.70;53.60;;;;;;10487180;28;20082;-56
2021/04/23 01:03:56;;;;;;;2.90;1.23;;;17.70;53.40;;;;;;10504633;28;20028;-56
2021/04/23 01:09:03;;;;;;;1.95;0.70;;;17.70;53.40;;;;;;10504057;28;20033;-57
2021/04/23 01:14:05;;;;;;;2.50;1.08;;;17.70;53.30;;;;;;10503679;28;20554;-57
2021/04/23 01:19:10;;;;;;;1.73;0.90;;;17.80;53.30;;;;;;10485914;28;20040;-56
2021/04/23 01:24:13;;;;;;;5.15;1.10;;;17.80;53.20;;;;;;10482135;28;20104;-57
2021/04/23 01:29:15;;;;;;;1.80;0.90;;;17.80;53.00;;;;;;10485185;28;20062;-56
2021/04/23 01:34:35;;;;;;;1.67;0.80;;;17.80;53.00;;;;;;10503414;28;20077;-53
2021/04/23 01:39:39;;;;;;;;;;;17.70;52.90;;;;;;10487675;28;20070;-52
2021/04/23 01:44:41;;;;;;;2.08;0.90;;;17.80;52.90;;;;;;10502423;28;19916;-54
2021/04/23 01:49:41;;;;;;;2.22;1.05;;;17.80;52.90;;;;;;10502564;28;20034;-54
2021/04/23 01:54:42;;;;;;;1.52;0.88;;;17.70;52.80;;;;;;10484578;28;20105;-54
2021/04/23 01:59:46;;;;;;;2.00;0.75;;;17.80;52.80;;;;;;10501767;28;20056;-53
2021/04/23 02:04:48;;;;;;;2.15;1.20;;;17.80;52.70;;;;;;10501059;28;20028;-54
2021/04/23 02:09:48;;;;;;;2.63;1.10;;;17.70;52.60;;;;;;10501881;28;20028;-55
2021/04/23 02:14:49;;;;;;;3.95;0.90;;;17.80;52.60;;;;;;10483808;28;20060;-53
2021/04/23 02:19:50;;;;;;;2.33;1.00;;;17.80;52.60;;;;;;10501563;28;20028;-54
2021/04/23 02:24:51;;;;;;;2.03;1.13;;;17.70;52.50;;;;;;10501236;28;20021;-52
2021/04/23 02:29:52;;;;;;;1.92;1.00;;;17.70;52.40;;;;;;10501141;28;20059;-54
2021/04/23 02:34:54;;;;;;;2.10;1.13;;;17.80;52.40;;;;;;10500424;28;20504;-54
2021/04/23 02:39:56;;;;;;;1.27;0.75;;;17.70;52.30;;;;;;10500210;28;20039;-54
2021/04/23 02:44:58;;;;;;;2.35;1.10;;;17.80;52.30;;;;;;10500242;28;20405;-53
2021/04/23 02:49:59;;;;;;;1.55;0.93;;;17.70;52.20;;;;;;10499805;28;20389;-55
2021/04/23 02:55:00;;;;;;;1.77;0.93;;;17.70;52.90;;;;;;10482111;28;20033;-54
2021/04/23 03:00:04;;;;;;;2.65;1.00;;;17.70;52.20;;;;;;10499510;28;20491;-54
2021/04/23 03:05:05;;;;;;;2.33;0.82;;;17.70;52.20;;;;;;10499519;28;20162;-53
2021/04/23 03:10:08;;;;;;;2.00;0.95;;;17.70;52.20;;;;;;10468167;28;20074;-54
2021/04/23 03:15:09;;;;;;;1.58;0.85;;;17.70;52.20;;;;;;10498960;28;20036;-53
2021/04/23 03:20:14;;;;;;;1.88;1.23;;;17.70;52.10;;;;;;10497963;28;20035;-54
2021/04/23 03:25:15;;;;;;;1.13;0.73;;;17.70;52.00;;;;;;10472086;28;20077;-53
2021/04/23 03:30:22;;;;;;;1.40;0.80;;;17.80;52.00;;;;;;10498145;28;20036;-54
2021/04/23 03:35:24;;;;;;;2.70;1.33;;;17.80;51.90;;;;;;10498303;28;20370;-54
2021/04/23 03:40:28;;;;;;;1.85;1.00;;;17.80;51.80;;;;;;10497577;28;20033;-54
2021/04/23 03:45:29;;;;;;;3.45;1.13;;;17.80;51.80;;;;;;10497580;28;20113;-52
2021/04/23 03:50:33;;;;;;;1.77;0.90;;;17.70;51.70;;;;;;10497453;28;20089;-54
2021/04/23 03:55:41;;;;;;;2.38;0.80;;;17.70;51.70;;;;;;10497733;28;20488;-53
2021/04/23 04:00:55;;;;;;;2.03;1.27;;;17.70;51.70;;;;;;10497534;28;20619;-51
2021/04/23 04:05:57;;;;;;;2.25;1.15;;;17.70;51.60;;;;;;10497491;28;20028;-51
2021/04/23 04:10:59;;;;;;;4.78;1.20;;;17.70;51.60;;;;;;10497296;28;20067;-52
2021/04/23 04:16:01;;;;;;;2.63;0.93;;;17.80;51.60;;;;;;10495787;28;20028;-52
2021/04/23 04:21:02;;;;;;;1.45;0.88;;;17.70;51.60;;;;;;10492411;28;20032;-54
2021/04/23 04:26:03;;;;;;;1.48;0.80;;;17.70;51.40;;;;;;10495693;28;20062;-53
2021/04/23 04:31:05;;;;;;;1.98;1.25;;;17.70;51.50;;;;;;10473725;28;20469;-53
2021/04/23 04:36:06;;;;;;;2.35;1.05;;;17.70;51.40;;;;;;10472516;28;20033;-53
2021/04/23 04:41:07;;;;;;;1.83;1.00;;;17.80;51.40;;;;;;10496046;28;20031;-55
2021/04/23 04:46:09;;;;;;;2.60;1.38;;;17.70;51.30;;;;;;10495810;28;20120;-52
2021/04/23 04:51:10;;;;;;;3.03;1.02;;;17.70;51.40;;;;;;10495594;28;20066;-51
2021/04/23 04:56:10;;;;;;;13.45;1.98;;;17.70;51.30;;;;;;10495698;28;20507;-51
2021/04/23 05:01:14;;;;;;;10.15;1.90;;;17.70;51.80;;;;;;10495233;28;20037;-49
2021/04/23 05:06:15;;;;;;;7.97;2.05;;;17.70;53.40;;;;;;10468453;28;20020;-48
2021/04/23 05:11:17;;;;;;;5.70;1.98;;;17.70;53.80;;;;;;10495310;28;20025;-51
2021/04/23 05:16:18;;;;;;;5.85;1.42;;;17.70;54.40;;;;;;10495425;28;20089;-50
2021/04/23 05:21:19;;;;;;;12.60;1.88;;;17.70;54.40;;;;;;10495069;28;20131;-49
2021/04/23 05:26:20;;;;;;;6.60;2.00;;;17.70;54.40;;;;;;10494636;28;20021;-54
2021/04/23 05:31:20;;;;;;;7.10;1.92;;;17.70;54.50;;;;;;10487418;28;20369;-52
2021/04/23 05:36:21;;;;;;;11.57;2.40;;;17.70;54.80;;;;;;10494742;28;20389;-52
2021/04/23 05:41:22;;;;;;;14.02;2.40;;;17.70;54.80;;;;;;10497683;28;20036;-55
2021/04/23 05:46:23;;;;;;;13.43;2.70;;;17.60;55.10;;;;;;10484768;28;20491;-55
2021/04/23 05:51:24;;;;;;;25.00;3.53;;;17.60;55.20;;;;;;10484434;28;20070;-52
2021/04/23 05:56:24;;;;;;;18.38;3.72;;;17.60;55.20;;;;;;10487965;28;20032;-47
2021/04/23 06:01:25;;;;;;;19.75;3.55;;;17.60;55.30;;;;;;10493329;28;20032;-50
2021/04/23 06:06:26;;;;;;;42.72;7.25;;;17.60;55.30;;;;;;10498247;28;20033;-45
2021/04/23 06:11:27;;;;;;;26.90;4.82;;;17.60;55.90;;;;;;10481011;28;20111;-52
2021/04/23 06:16:27;;;;;;;25.77;4.40;;;17.60;55.30;;;;;;10498769;28;20304;-53
2021/04/23 06:21:29;;;;;;;21.52;4.40;;;17.60;55.60;;;;;;10480839;28;20481;-54
2021/04/23 06:26:30;;;;;;;33.88;4.82;;;17.70;55.40;;;;;;10499791;28;20028;-53
2021/04/23 06:31:32;;;;;;;22.23;4.88;;;17.80;55.60;;;;;;10496201;28;20040;-51
2021/04/23 06:36:32;;;;;;;19.05;4.18;;;17.90;55.50;;;;;;10462767;28;20078;-52
2021/04/23 06:41:33;;;;;;;15.70;3.70;;;17.90;56.10;;;;;;10497562;28;20025;-53
2021/04/23 06:46:34;;;;;;;16.33;3.80;;;17.90;55.90;;;;;;10498519;28;20503;-54
2021/04/23 06:51:36;;;;;;;21.52;3.67;;;17.90;55.90;;;;;;10462953;28;20039;-53
2021/04/23 06:56:37;;;;;;;15.77;3.28;;;18.00;55.90;;;;;;10478207;28;20477;-54
2021/04/23 07:01:38;;;;;;;23.70;3.58;;;18.10;55.80;;;;;;10499491;28;20028;-53
2021/04/23 07:06:41;;;;;;;13.85;3.92;;;18.00;55.80;;;;;;10497997;28;20021;-55
2021/04/23 07:11:42;;;;;;;15.50;2.90;;;18.00;55.40;;;;;;10499460;28;20111;-54
2021/04/23 07:16:43;;;;;;;15.10;3.80;;;18.00;55.60;;;;;;10495774;28;20028;-55
2021/04/23 07:21:43;;;;;;;17.77;4.00;;;18.00;56.40;;;;;;10495625;28;20040;-55
2021/04/23 07:26:44;;;;;;;16.20;3.95;;;18.00;56.90;;;;;;10495218;28;20020;-55
2021/04/23 07:31:45;;;;;;;15.75;3.88;;;18.10;57.20;;;;;;10478783;28;20123;-55
2021/04/23 07:36:45;;;;;;;25.70;3.22;;;18.10;57.40;;;;;;10496587;28;20025;-56
2021/04/23 07:41:46;;;;;;;20.90;3.58;;;18.00;57.00;;;;;;10497001;28;20056;-57
2021/04/23 07:46:47;;;;;;;14.52;3.40;;;18.00;57.70;;;;;;10486879;28;20442;-57
2021/04/23 07:51:48;;;;;;;16.40;3.35;;;18.00;57.40;;;;;;10496968;28;20039;-56
2021/04/23 07:56:49;;;;;;;10.82;3.30;;;18.00;57.40;;;;;;10495331;28;20044;-56
2021/04/23 08:01:54;;;;;;;10.05;2.80;;;18.00;57.30;;;;;;10497533;28;20362;-58
2021/04/23 08:06:55;;;;;;;22.63;3.78;;;18.00;57.20;;;;;;10478708;28;20362;-57
2021/04/23 08:11:56;;;;;;;15.98;3.25;;;18.00;57.80;;;;;;10466435;28;20056;-58
2021/04/23 08:16:57;;;;;;;9.40;2.97;;;18.00;57.80;;;;;;10478656;28;20119;-58
2021/04/23 08:21:57;;;;;;;11.82;3.22;;;17.90;58.50;;;;;;10497155;28;20509;-58
2021/04/23 08:26:59;;;;;;;13.85;3.33;;;18.00;58.70;;;;;;10497182;28;20500;-58
2021/04/23 08:31:59;;;;;;;10.55;2.65;;;18.00;58.60;;;;;;10497066;28;20028;-57
2021/04/23 08:37:00;;;;;;;11.90;3.00;;;17.90;58.30;;;;;;10496915;28;20021;-58
2021/04/23 08:42:01;;;;;;;5.97;2.42;;;18.00;57.80;;;;;;10496507;28;20076;-59
2021/04/23 08:47:02;;;;;;;13.45;3.05;;;17.90;57.40;;;;;;10496534;28;20104;-57
2021/04/23 08:52:03;;;;;;;10.98;2.17;;;18.00;58.00;;;;;;10496824;28;20033;-51
2021/04/23 08:57:05;;;;;;;10.25;2.50;;;18.00;57.50;;;;;;10496464;28;20035;-54
2021/04/23 09:02:05;;;;;;;14.70;2.53;;;18.10;57.40;;;;;;10496233;28;20543;-56
2021/04/23 09:07:07;;;;;;;13.23;2.28;;;18.20;57.20;;;;;;10495924;28;20020;-56
2021/04/23 09:12:24;;;;;;;9.25;2.65;;;18.20;56.90;;;;;;10495759;28;20055;-55
2021/04/23 09:17:27;;;;;;;11.55;2.85;;;18.30;56.80;;;;;;10516073;28;20034;-56
2021/04/23 09:22:31;;;;;;;9.63;1.50;;;18.20;56.60;;;;;;10503528;28;20039;-56
2021/04/23 09:27:35;;;;;;;6.88;2.08;;;18.30;56.70;;;;;;10485532;28;20020;-56
2021/04/23 09:32:41;;;;;;;14.93;2.55;;;18.30;57.20;;;;;;10503724;28;20036;-56
2021/04/23 09:37:53;;;;;;;10.98;2.78;;;18.30;56.50;;;;;;10503489;28;20071;-56
2021/04/23 09:43:00;;;;;;;9.20;2.20;;;18.30;56.50;;;;;;10502710;28;20040;-56
2021/04/23 09:48:02;;;;;;;7.28;2.33;;;18.20;56.50;;;;;;10502509;28;20031;-55
2021/04/23 09:53:03;;;;;;;6.25;1.98;;;18.30;56.40;;;;;;10502376;28;20028;-56
2021/04/23 09:58:09;;;;;;;5.38;2.00;;;18.30;56.40;;;;;;10502232;28;20029;-56
2021/04/23 10:03:10;;;;;;;5.63;1.98;;;18.30;56.50;;;;;;10502206;28;20495;-56
2021/04/23 10:08:25;;;;;;;4.30;1.65;;;18.30;56.50;;;;;;10501973;28;20039;-54
2021/04/23 10:13:33;;;;;;;4.13;1.48;;;18.30;56.50;;;;;;10501535;28;20052;-56
2021/04/23 10:18:34;;;;;;;6.28;1.67;;;18.30;56.50;;;;;;10483819;28;20042;-58
2021/04/23 10:23:35;;;;;;;4.88;1.77;;;18.30;56.30;;;;;;10499591;28;20107;-56
2021/04/23 10:28:36;;;;;;;6.47;2.03;;;18.30;55.60;;;;;;10482471;28;20042;-56
2021/04/23 10:33:37;;;;;;;6.78;2.25;;;18.30;55.80;;;;;;10500196;28;20028;-56
2021/04/23 10:38:40;;;;;;;6.47;1.73;;;18.30;55.40;;;;;;10482298;28;20029;-53
2021/04/23 10:43:54;;;;;;;11.40;2.22;;;18.30;55.70;;;;;;10479901;28;20047;-53
2021/04/23 10:49:08;;;;;;;3.95;1.35;;;18.30;56.10;;;;;;10500182;28;20043;-53
2021/04/23 10:54:15;;;;;;;6.95;1.98;;;18.40;56.40;;;;;;10499619;28;20043;-54
2021/04/23 10:59:34;;;;;;;3.45;1.80;;;18.40;56.60;;;;;;10513416;28;20028;-56
2021/04/23 11:05:00;;;;;;;5.23;1.17;;;18.40;56.80;;;;;;10499652;28;20032;-54
2021/04/23 11:10:05;;;;;;;7.25;2.40;;;18.40;57.00;;;;;;10482081;28;20123;-56
2021/04/23 11:15:16;;;;;;;10.02;1.90;;;18.40;57.20;;;;;;10498079;28;20077;-56
2021/04/23 11:20:32;;;;;;;13.75;2.08;;;18.40;57.10;;;;;;10480857;28;20045;-55
2021/04/23 11:25:52;;;;;;;9.32;2.22;;;18.40;56.90;;;;;;10498444;28;20025;-56
2021/04/23 11:30:58;;;;;;;13.68;2.72;;;18.40;56.70;;;;;;10483512;28;20024;-56
2021/04/23 11:36:23;;;;;;;9.13;1.70;;;18.40;56.50;;;;;;10498282;28;20566;-54
2021/04/23 11:41:25;;;;;;;11.75;1.83;;;18.40;56.20;;;;;;10479012;28;20446;-54
2021/04/23 11:46:53;;;;;;;7.63;2.08;;;18.40;55.90;;;;;;10497513;28;20105;-56
2021/04/23 11:52:00;;;;;;;5.60;1.95;;;18.30;55.90;;;;;;10496574;28;20040;-55
2021/04/23 11:57:04;;;;;;;9.63;2.00;;;18.40;55.20;;;;;;10495533;28;20028;-56
2021/04/23 12:02:05;;;;;;;6.88;2.17;;;18.40;55.20;;;;;;10467073;28;20043;-56
2021/04/23 12:07:06;;;;;;;3.08;1.25;;;18.40;55.10;;;;;;10497032;28;20034;-55
2021/04/23 12:12:16;;;;;;;7.00;2.17;;;18.40;55.10;;;;;;10497044;28;20573;-56
2021/04/23 12:17:17;;;;;;;3.75;1.42;;;18.40;55.10;;;;;;10479206;28;20381;-54
2021/04/23 12:22:17;;;;;;;8.02;1.70;;;18.40;54.90;;;;;;10496187;28;20063;-56
2021/04/23 12:27:26;;;;;;;12.63;2.42;;;18.40;54.80;;;;;;10496781;28;20081;-57
2021/04/23 12:32:27;;;;;;;11.20;2.00;;;18.40;54.60;;;;;;10496853;28;20028;-56
2021/04/23 12:37:28;;;;;;;7.90;1.88;;;18.40;54.50;;;;;;10496716;28;20115;-56
2021/04/23 12:42:29;;;;;;;4.47;1.80;;;18.40;54.40;;;;;;10496553;28;20058;-54
2021/04/23 12:47:30;;;;;;;7.07;2.22;;;18.40;54.00;;;;;;10478537;28;20035;-56
2021/04/23 12:52:30;;;;;;;9.93;2.20;;;18.50;53.60;;;;;;10503101;28;20028;-56
2021/04/23 12:57:32;;;;;;;6.65;2.05;;;18.50;53.50;;;;;;10487070;28;20032;-56
2021/04/23 13:02:37;;;;;;;9.02;2.00;;;18.50;53.10;;;;;;10504368;28;20032;-55
2021/04/23 13:07:53;;;;;;;11.57;2.22;;;18.40;53.50;;;;;;10486770;28;20024;-57
2021/04/23 13:13:06;;;;;;;7.25;2.55;;;18.40;52.80;;;;;;10483477;28;20056;-56
2021/04/23 13:18:17;;;;;;;5.95;2.15;;;18.40;52.70;;;;;;10503826;28;20040;-54
2021/04/23 13:23:44;;;;;;;11.18;2.78;;;18.30;52.50;;;;;;10500356;28;20041;-56
2021/04/23 13:29:14;;;;;;;15.85;2.70;;;18.40;52.80;;;;;;10503136;28;20029;-56
2021/04/23 13:34:15;;;;;;;8.38;2.92;;;18.50;53.80;;;;;;10485293;28;20053;-55
2021/04/23 13:39:16;;;;;;;19.58;2.67;;;18.50;54.20;;;;;;10501281;28;20025;-56
2021/04/23 13:44:21;;;;;;;11.43;2.83;;;18.60;54.60;;;;;;10502702;28;20358;-57
2021/04/23 13:49:33;;;;;;;12.52;2.65;;;18.60;54.90;;;;;;10493037;28;20028;-57
2021/04/23 13:54:34;;;;;;;16.33;3.95;;;18.60;54.70;;;;;;10477498;28;20069;-55
2021/04/23 13:59:35;;;;;;;21.27;3.40;;;18.60;55.00;;;;;;10499848;28;20078;-55
2021/04/23 14:04:39;;;;;;;13.85;2.40;;;18.60;55.00;;;;;;10480227;28;20028;-56
2021/04/23 14:09:41;;;;;;;14.55;4.05;;;18.60;54.80;;;;;;10500804;28;20358;-56
2021/04/23 14:14:42;;;;;;;18.05;2.85;;;18.70;55.10;;;;;;10500151;28;20028;-55
2021/04/23 14:19:45;;;;;;;12.85;2.95;;;18.70;55.30;;;;;;10497892;28;20029;-56
2021/04/23 14:24:46;;;;;;;15.27;3.72;;;18.70;55.40;;;;;;10500905;28;20516;-56
2021/04/23 14:29:49;;;;;;;20.08;2.95;;;18.70;55.40;;;;;;10477074;28;20028;-58
2021/04/23 14:34:49;;;;;;;20.17;3.83;;;18.70;55.40;;;;;;10498734;28;20021;-56
2021/04/23 14:39:50;;;;;;;9.45;2.78;;;18.70;55.70;;;;;;10499199;28;20021;-56
2021/04/23 14:44:51;;;;;;;14.00;3.03;;;18.70;55.80;;;;;;10497305;28;20049;-55
2021/04/23 14:49:52;;;;;;;13.93;3.10;;;18.70;55.80;;;;;;10499935;28;20540;-58
2021/04/23 14:54:53;;;;;;;11.15;3.75;;;18.70;55.50;;;;;;10481215;28;20025;-56
2021/04/23 14:59:53;;;;;;;13.00;3.25;;;18.70;55.50;;;;;;10497394;28;20150;-54
2021/04/23 15:04:54;;;;;;;12.57;3.28;;;18.70;55.50;;;;;;10497966;28;20119;-56
2021/04/23 15:09:55;;;;;;;18.38;3.95;;;18.70;55.80;;;;;;10497888;28;20032;-57
2021/04/23 15:14:55;;;;;;;21.80;4.75;;;18.70;55.90;;;;;;10497653;28;20162;-53
2021/04/23 15:19:56;;;;;;;18.73;3.35;;;18.70;55.70;;;;;;10498679;28;20120;-56
2021/04/23 15:24:57;;;;;;;27.50;4.43;;;18.70;55.40;;;;;;10499026;28;20028;-55
2021/04/23 15:29:57;;;;;;;29.30;5.63;;;18.70;55.80;;;;;;10480496;28;20111;-55
2021/04/23 15:34:58;;;;;;;42.78;6.22;;;18.70;55.80;;;;;;10498813;28;20037;-53
2021/04/23 15:39:59;;;;;;;19.80;3.85;;;18.70;56.00;;;;;;10498154;28;20037;-55
2021/04/23 15:45:00;;;;;;;32.03;5.68;;;18.70;55.70;;;;;;10497830;28;20059;-55
2021/04/23 15:50:01;;;;;;;23.40;4.90;;;18.70;56.00;;;;;;10491221;28;20037;-55
2021/04/23 15:55:02;;;;;;;39.00;5.40;;;18.70;56.30;;;;;;10496890;28;20032;-56
2021/04/23 16:00:08;;;;;;;22.73;4.60;;;18.80;56.80;;;;;;10491967;28;20067;-56
2021/04/23 16:05:13;;;;;;;23.67;4.60;;;18.80;57.50;;;;;;10496572;28;20029;-56
2021/04/23 16:10:15;;;;;;;24.42;4.78;;;18.80;57.40;;;;;;10496685;28;20036;-56
2021/04/23 16:15:19;;;;;;;17.90;4.55;;;18.80;57.10;;;;;;10496195;28;20037;-57
2021/04/23 16:20:22;;;;;;;21.17;4.07;;;18.80;57.30;;;;;;10496225;28;20044;-56
2021/04/23 16:25:33;;;;;;;23.33;4.32;;;18.90;57.70;;;;;;10495440;28;20020;-55
2021/04/23 16:30:35;;;;;;;23.67;5.38;;;19.00;58.00;;;;;;10496596;28;20047;-57
2021/04/23 16:35:35;;;;;;;26.10;6.97;;;19.00;58.60;;;;;;10510387;28;20493;-56
2021/04/23 16:40:36;;;;;;;19.83;4.65;;;18.90;59.40;;;;;;10496232;28;20037;-57
2021/04/23 16:45:37;;;;;;;17.20;4.30;;;18.90;59.00;;;;;;10496171;28;20036;-57
2021/04/23 16:50:39;;;;;;;12.75;4.30;;;18.90;58.90;;;;;;10496468;28;20435;-58
2021/04/23 16:55:40;;;;;;;17.92;3.95;;;18.90;58.70;;;;;;10469805;28;20055;-56
2021/04/23 17:00:41;;;;;;;13.27;4.22;;;18.90;58.90;;;;;;10494871;28;20029;-57
2021/04/23 17:05:42;;;;;;;15.15;3.67;;;18.90;58.50;;;;;;10494960;28;20028;-57
2021/04/23 17:10:43;;;;;;;11.38;3.88;;;18.80;58.00;;;;;;10495003;28;20024;-57
2021/04/23 17:15:44;;;;;;;11.15;3.00;;;18.80;58.10;;;;;;10495082;28;20089;-57
2021/04/23 17:20:45;;;;;;;12.95;3.25;;;18.80;58.00;;;;;;10494583;28;20139;-57
2021/04/23 17:25:45;;;;;;;8.90;2.85;;;18.80;58.00;;;;;;10495477;28;20380;-57
2021/04/23 17:30:46;;;;;;;8.48;2.45;;;18.70;57.90;;;;;;10494706;28;20032;-56
2021/04/23 17:35:47;;;;;;;12.07;3.72;;;18.70;58.00;;;;;;10496462;28;20032;-56
2021/04/23 17:40:47;;;;;;;10.70;3.55;;;18.70;58.10;;;;;;10500657;28;20032;-55
2021/04/23 17:45:49;;;;;;;9.18;2.95;;;18.70;58.10;;;;;;10501117;28;20506;-56
2021/04/23 17:50:50;;;;;;;10.82;3.63;;;18.70;58.20;;;;;;10499599;28;20484;-57
2021/04/23 17:55:50;;;;;;;9.57;2.33;;;18.70;57.80;;;;;;10499605;28;20032;-57
2021/04/23 18:00:51;;;;;;;5.63;2.40;;;18.70;57.50;;;;;;10498200;28;20516;-57
2021/04/23 18:05:52;;;;;;;9.93;2.38;;;18.60;57.50;;;;;;10479789;28;20036;-57
2021/04/23 18:10:53;;;;;;;8.20;2.92;;;18.60;57.50;;;;;;10499920;28;20120;-58
2021/04/23 18:15:53;;;;;;;7.32;2.50;;;18.50;57.40;;;;;;10500324;28;20112;-57
2021/04/23 18:20:54;;;;;;;9.73;2.50;;;18.50;57.40;;;;;;10500470;28;20037;-57
2021/04/23 18:25:55;;;;;;;5.95;2.10;;;18.50;57.20;;;;;;10482580;28;20158;-57
2021/04/23 18:30:56;;;;;;;7.78;2.45;;;18.50;57.30;;;;;;10499508;28;20107;-57
2021/04/23 18:35:58;;;;;;;6.00;1.80;;;18.50;57.20;;;;;;10500272;28;20029;-56
2021/04/23 18:40:59;;;;;;;4.57;1.83;;;18.50;57.00;;;;;;10499703;28;20392;-56
2021/04/23 18:45:59;;;;;;;5.65;2.58;;;18.50;56.70;;;;;;10498579;28;20052;-56
2021/04/23 18:51:00;;;;;;;6.95;2.63;;;18.50;56.60;;;;;;10475847;28;20032;-56
2021/04/23 18:56:01;;;;;;;6.43;2.50;;;18.60;57.10;;;;;;10499542;28;20396;-57
2021/04/23 19:01:04;;;;;;;11.27;2.95;;;18.60;57.10;;;;;;10493393;28;20373;-56
2021/04/23 19:06:05;;;;;;;6.22;1.75;;;18.60;56.90;;;;;;10493102;28;20433;-54
2021/04/23 19:11:06;;;;;;;7.03;2.10;;;18.70;57.40;;;;;;10474722;28;20021;-56
2021/04/23 19:16:07;;;;;;;5.80;2.00;;;18.70;57.40;;;;;;10498864;28;20029;-54
2021/04/23 19:21:08;;;;;;;4.70;1.80;;;18.70;57.50;;;;;;10498973;28;20040;-56
2021/04/23 19:26:09;;;;;;;4.18;1.55;;;18.70;57.70;;;;;;10498811;28;20039;-56
2021/04/23 19:31:09;;;;;;;16.05;2.60;;;18.70;57.30;;;;;;10497114;28;20029;-56
2021/04/23 19:36:11;;;;;;;4.07;2.10;;;18.70;57.00;;;;;;10496491;28;20408;-56
2021/04/23 19:41:11;;;;;;;8.25;1.80;;;18.70;57.10;;;;;;10478383;28;20477;-58
2021/04/23 19:46:12;;;;;;;5.13;1.85;;;18.70;56.80;;;;;;10414886;28;20046;-58
2021/04/23 19:51:13;;;;;;;5.25;1.70;;;18.70;56.80;;;;;;10413775;28;20118;-58
2021/04/23 19:56:14;;;;;;;4.13;1.55;;;18.70;56.80;;;;;;10411350;28;20025;-58
2021/04/23 20:01:14;;;;;;;4.70;1.77;;;18.60;56.80;;;;;;10411674;28;20034;-58
2021/04/23 20:06:15;;;;;;;4.03;1.73;;;18.60;56.90;;;;;;10415040;28;20029;-58
2021/04/23 20:11:16;;;;;;;6.22;1.70;;;18.50;56.90;;;;;;10397445;28;20568;-58
2021/04/23 20:16:19;;;;;;;4.70;1.73;;;18.50;56.90;;;;;;10415209;28;20041;-58
2021/04/23 20:21:19;;;;;;;8.00;1.92;;;18.50;57.00;;;;;;10414839;28;20124;-58
2021/04/23 20:26:20;;;;;;;3.58;1.80;;;18.50;57.10;;;;;;10396815;28;20022;-58
2021/04/23 20:31:21;;;;;;;4.07;1.70;;;18.50;56.80;;;;;;10414427;28;20113;-58
2021/04/23 20:36:22;;;;;;;3.92;1.73;;;18.40;56.70;;;;;;10413517;28;20362;-58
2021/04/23 20:41:23;;;;;;;5.10;1.33;;;18.40;56.70;;;;;;10414509;28;20040;-58
2021/04/23 20:46:24;;;;;;;3.05;1.30;;;18.40;56.70;;;;;;10412732;28;20444;-58
2021/04/23 20:51:25;;;;;;;4.85;1.60;;;18.40;56.70;;;;;;10412984;28;20804;-58
2021/04/23 20:56:25;;;;;;;3.58;1.50;;;18.40;56.80;;;;;;10412999;28;20426;-58
2021/04/23 21:01:26;;;;;;;5.20;1.77;;;18.30;56.80;;;;;;10413873;28;20113;-58
2021/04/23 21:06:27;;;;;;;2.72;1.65;;;18.30;56.80;;;;;;10414194;28;20025;-58
2021/04/23 21:11:27;;;;;;;4.63;1.95;;;18.30;56.80;;;;;;10415858;28;20044;-58
2021/04/23 21:16:30;;;;;;;3.00;1.98;;;18.30;56.80;;;;;;10422018;28;20477;-58
2021/04/23 21:21:31;;;;;;;2.38;1.05;;;18.30;56.80;;;;;;10421644;28;20064;-58
2021/04/23 21:26:31;;;;;;;2.85;1.35;;;18.30;56.70;;;;;;10421859;28;20033;-58
2021/04/23 21:31:32;;;;;;;2.72;1.48;;;18.30;56.70;;;;;;10420981;28;20037;-58
2021/04/23 21:36:34;;;;;;;2.33;1.48;;;18.30;56.70;;;;;;10421142;28;20044;-58
2021/04/23 21:41:34;;;;;;;3.05;1.40;;;18.30;56.90;;;;;;10420659;28;20057;-58
2021/04/23 21:46:36;;;;;;;3.05;1.20;;;18.30;56.90;;;;;;10461820;28;20033;-58
2021/04/23 21:51:37;;;;;;;2.80;1.23;;;18.30;56.80;;;;;;10461806;28;20057;-58
2021/04/23 21:56:39;;;;;;;3.33;1.20;;;18.20;56.80;;;;;;10461618;28;20033;-58
2021/04/23 22:01:39;;;;;;;3.15;1.23;;;18.20;56.70;;;;;;10461425;28;20047;-58
2021/04/23 22:06:40;;;;;;;3.63;1.15;;;18.20;56.70;;;;;;10461119;28;20029;-58
2021/04/23 22:11:41;;;;;;;2.72;1.42;;;18.20;56.60;;;;;;10460901;28;20032;-58
2021/04/23 22:16:42;;;;;;;2.22;1.25;;;18.20;56.60;;;;;;10460771;28;20481;-58
2021/04/23 22:21:44;;;;;;;3.03;1.65;;;18.20;56.60;;;;;;10458484;28;20037;-58
2021/04/23 22:26:44;;;;;;;2.05;1.40;;;18.20;56.50;;;;;;10460385;28;20021;-58
2021/04/23 22:31:45;;;;;;;3.67;1.58;;;18.20;56.50;;;;;;10459919;28;20029;-58
2021/04/23 22:36:46;;;;;;;2.03;1.23;;;18.20;56.50;;;;;;10460099;28;20115;-58
2021/04/23 22:41:47;;;;;;;3.33;1.45;;;18.10;56.40;;;;;;10459889;28;20028;-58
2021/04/23 22:46:48;;;;;;;3.50;1.38;;;18.10;56.40;;;;;;10499783;28;20040;-57
2021/04/23 22:51:50;;;;;;;3.83;1.50;;;18.10;56.40;;;;;;10500684;28;20036;-58
2021/04/23 22:56:51;;;;;;;1.65;1.33;;;18.10;56.30;;;;;;10500692;28;20040;-58
2021/04/23 23:01:52;;;;;;;2.97;1.55;;;18.10;56.30;;;;;;10500218;28;20036;-58
2021/04/23 23:06:52;;;;;;;3.55;1.52;;;18.10;56.30;;;;;;10513640;28;20161;-57
2021/04/23 23:11:53;;;;;;;2.13;1.20;;;18.10;56.30;;;;;;10481856;28;20081;-58
2021/04/23 23:16:54;;;;;;;2.58;1.55;;;18.10;56.30;;;;;;10499432;28;20032;-57
2021/04/23 23:21:55;;;;;;;2.72;1.42;;;18.10;56.30;;;;;;10499266;28;20115;-57
2021/04/23 23:26:56;;;;;;;2.22;1.20;;;18.00;56.20;;;;;;10481863;28;20032;-58
2021/04/23 23:31:57;;;;;;;3.35;1.63;;;18.00;56.20;;;;;;10499143;28;20051;-58
2021/04/23 23:36:58;;;;;;;3.35;1.52;;;18.00;56.20;;;;;;10498583;28;20483;-58
2021/04/23 23:41:59;;;;;;;2.75;1.65;;;18.00;56.10;;;;;;10498622;28;20040;-58
2021/04/23 23:47:00;;;;;;;1.85;1.38;;;17.90;56.10;;;;;;10498495;28;20099;-57
2021/04/23 23:52:00;;;;;;;2.97;1.63;;;18.00;56.10;;;;;;10498402;28;20032;-56
2021/04/23 23:57:01;;;;;;;3.28;1.80;;;18.00;56.00;;;;;;10497916;28;20072;-58
